sensor_id;sensor_type;location;lat;lon;timestamp;temperature;humidity
20041;DHT22;10181;48.072;9.884;2022-11-18T00:00:53;7.90;99.90
20041;DHT22;10181;48.072;9.884;2022-11-18T00:03:19;7.80;99.90
20041;DHT22;10181;48.072;9.884;2022-11-18T00:05:55;7.80;99.90
20041;DHT22;10181;48.072;9.884;2022-11-18T00:08:22;7.90;99.90
20041;DHT22;10181;48.072;9.884;2022-11-18T00:10:48;7.90;99.90
20041;DHT22;10181;48.072;9.884;2022-11-18T00:13:14;7.90;99.90
20041;DHT22;10181;48.072;9.884;2022-11-18T00:16:03;8.00;99.90
20041;DHT22;10181;48.072;9.884;2022-11-18T00:18:29;8.00;99.90
20041;DHT22;10181;48.072;9.884;2022-11-18T00:20:55;8.00;99.90
20041;DHT22;10181;48.072;9.884;2022-11-18T00:23:24;8.00;99.90
20041;DHT22;10181;48.072;9.884;2022-11-18T00:25:50;7.90;99.90
20041;DHT22;10181;48.072;9.884;2022-11-18T00:28:15;7.90;99.90
20041;DHT22;10181;48.072;9.884;2022-11-18T00:30:41;7.90;99.90
20041;DHT22;10181;48.072;9.884;2022-11-18T00:33:06;7.90;99.90
20041;DHT22;10181;48.072;9.884;2022-11-18T00:35:32;7.90;99.90
20041;DHT22;10181;48.072;9.884;2022-11-18T00:37:58;7.90;99.90
20041;DHT22;10181;48.072;9.884;2022-11-18T00:40:23;7.90;99.90
20041;DHT22;10181;48.072;9.884;2022-11-18T00:42:50;7.90;99.90
20041;DHT22;10181;48.072;9.884;2022-11-18T00:45:16;7.80;99.90
20041;DHT22;10181;48.072;9.884;2022-11-18T00:47:42;7.80;99.90
20041;DHT22;10181;48.072;9.884;2022-11-18T00:50:08;7.80;99.90
20041;DHT22;10181;48.072;9.884;2022-11-18T00:52:34;7.80;99.90
20041;DHT22;10181;48.072;9.884;2022-11-18T00:55:00;7.80;99.90
20041;DHT22;10181;48.072;9.884;2022-11-18T00:57:25;7.80;99.90
20041;DHT22;10181;48.072;9.884;2022-11-18T00:59:51;7.80;99.90
20041;DHT22;10181;48.072;9.884;2022-11-18T01:02:16;7.70;99.90
20041;DHT22;10181;48.072;9.884;2022-11-18T01:04:42;7.80;99.90
20041;DHT22;10181;48.072;9.884;2022-11-18T01:07:08;7.80;99.90
20041;DHT22;10181;48.072;9.884;2022-11-18T01:09:33;7.80;99.90
20041;DHT22;10181;48.072;9.884;2022-11-18T01:11:59;7.80;99.90
20041;DHT22;10181;48.072;9.884;2022-11-18T01:14:43;7.80;99.90
20041;DHT22;10181;48.072;9.884;2022-11-18T01:17:09;7.80;99.90
20041;DHT22;10181;48.072;9.884;2022-11-18T01:19:34;7.80;99.90
20041;DHT22;10181;48.072;9.884;2022-11-18T01:22:00;7.80;99.90
20041;DHT22;10181;48.072;9.884;2022-11-18T01:24:36;7.80;99.90
20041;DHT22;10181;48.072;9.884;2022-11-18T01:27:02;7.80;99.90
20041;DHT22;10181;48.072;9.884;2022-11-18T01:29:28;7.80;99.90
20041;DHT22;10181;48.072;9.884;2022-11-18T01:31:54;7.80;99.90
20041;DHT22;10181;48.072;9.884;2022-11-18T01:34:19;7.80;99.90
20041;DHT22;10181;48.072;9.884;2022-11-18T01:36:45;7.70;99.90
20041;DHT22;10181;48.072;9.884;2022-11-18T01:39:10;7.70;99.90
20041;DHT22;10181;48.072;9.884;2022-11-18T01:41:36;7.60;99.90
20041;DHT22;10181;48.072;9.884;2022-11-18T01:47:07;7.50;99.90
20041;DHT22;10181;48.072;9.884;2022-11-18T01:49:32;7.50;99.90
20041;DHT22;10181;48.072;9.884;2022-11-18T01:51:58;7.60;99.90
20041;DHT22;10181;48.072;9.884;2022-11-18T01:54:30;7.60;99.90
20041;DHT22;10181;48.072;9.884;2022-11-18T01:57:00;7.60;99.90
20041;DHT22;10181;48.072;9.884;2022-11-18T01:59:33;7.60;99.90
20041;DHT22;10181;48.072;9.884;2022-11-18T02:02:03;7.60;99.90
20041;DHT22;10181;48.072;9.884;2022-11-18T02:04:30;7.60;99.90
20041;DHT22;10181;48.072;9.884;2022-11-18T02:06:57;7.50;99.90
20041;DHT22;10181;48.072;9.884;2022-11-18T02:09:23;7.50;99.90
20041;DHT22;10181;48.072;9.884;2022-11-18T02:11:49;7.50;99.90
20041;DHT22;10181;48.072;9.884;2022-11-18T02:14:24;7.50;99.90
20041;DHT22;10181;48.072;9.884;2022-11-18T02:28:09;7.50;99.90
20041;DHT22;10181;48.072;9.884;2022-11-18T02:31:06;7.50;99.90
20041;DHT22;10181;48.072;9.884;2022-11-18T02:33:42;7.60;99.90
20041;DHT22;10181;48.072;9.884;2022-11-18T02:36:28;7.60;99.90
20041;DHT22;10181;48.072;9.884;2022-11-18T02:39:04;7.60;99.90
20041;DHT22;10181;48.072;9.884;2022-11-18T02:41:33;7.60;99.90
20041;DHT22;10181;48.072;9.884;2022-11-18T02:44:03;7.60;99.90
20041;DHT22;10181;48.072;9.884;2022-11-18T02:46:33;7.70;99.90
20041;DHT22;10181;48.072;9.884;2022-11-18T02:49:09;7.60;99.90
20041;DHT22;10181;48.072;9.884;2022-11-18T02:51:37;7.60;99.90
20041;DHT22;10181;48.072;9.884;2022-11-18T02:54:07;7.60;99.90
20041;DHT22;10181;48.072;9.884;2022-11-18T02:56:35;7.60;99.90
20041;DHT22;10181;48.072;9.884;2022-11-18T02:59:02;7.60;99.90
20041;DHT22;10181;48.072;9.884;2022-11-18T03:01:30;7.70;99.90
20041;DHT22;10181;48.072;9.884;2022-11-18T03:03:56;7.80;99.90
20041;DHT22;10181;48.072;9.884;2022-11-18T03:06:44;7.80;99.90
20041;DHT22;10181;48.072;9.884;2022-11-18T03:09:35;7.80;99.90
20041;DHT22;10181;48.072;9.884;2022-11-18T03:12:24;7.80;99.90
20041;DHT22;10181;48.072;9.884;2022-11-18T03:17:43;7.90;99.90
20041;DHT22;10181;48.072;9.884;2022-11-18T03:23:13;7.80;99.90
20041;DHT22;10181;48.072;9.884;2022-11-18T03:25:50;7.80;99.90
20041;DHT22;10181;48.072;9.884;2022-11-18T03:28:30;7.90;99.90
20041;DHT22;10181;48.072;9.884;2022-11-18T03:31:06;7.90;99.90
20041;DHT22;10181;48.072;9.884;2022-11-18T03:33:36;7.80;99.90
20041;DHT22;10181;48.072;9.884;2022-11-18T03:36:06;7.80;99.90
20041;DHT22;10181;48.072;9.884;2022-11-18T03:38:38;7.80;99.90
20041;DHT22;10181;48.072;9.884;2022-11-18T03:41:07;7.80;99.90
20041;DHT22;10181;48.072;9.884;2022-11-18T03:43:38;7.80;99.90
20041;DHT22;10181;48.072;9.884;2022-11-18T03:46:14;7.80;99.90
20041;DHT22;10181;48.072;9.884;2022-11-18T03:48:50;7.90;99.90
20041;DHT22;10181;48.072;9.884;2022-11-18T03:51:21;7.80;99.90
20041;DHT22;10181;48.072;9.884;2022-11-18T03:53:56;7.90;99.90
20041;DHT22;10181;48.072;9.884;2022-11-18T03:56:29;7.90;99.90
20041;DHT22;10181;48.072;9.884;2022-11-18T03:59:04;7.90;99.90
20041;DHT22;10181;48.072;9.884;2022-11-18T04:01:38;7.80;99.90
20041;DHT22;10181;48.072;9.884;2022-11-18T04:04:05;7.70;99.90
20041;DHT22;10181;48.072;9.884;2022-11-18T04:09:19;7.70;99.90
20041;DHT22;10181;48.072;9.884;2022-11-18T04:11:52;7.70;99.90
20041;DHT22;10181;48.072;9.884;2022-11-18T04:14:29;7.70;99.90
20041;DHT22;10181;48.072;9.884;2022-11-18T04:16:56;7.70;99.90
20041;DHT22;10181;48.072;9.884;2022-11-18T04:19:22;7.70;99.90
20041;DHT22;10181;48.072;9.884;2022-11-18T04:21:48;7.70;99.90
20041;DHT22;10181;48.072;9.884;2022-11-18T04:24:13;7.70;99.90
20041;DHT22;10181;48.072;9.884;2022-11-18T04:26:39;7.70;99.90
20041;DHT22;10181;48.072;9.884;2022-11-18T04:29:05;7.80;99.90
20041;DHT22;10181;48.072;9.884;2022-11-18T04:31:31;7.80;99.90
20041;DHT22;10181;48.072;9.884;2022-11-18T04:33:56;7.80;99.90
20041;DHT22;10181;48.072;9.884;2022-11-18T04:36:22;7.80;99.90
20041;DHT22;10181;48.072;9.884;2022-11-18T04:38:48;7.80;99.90
20041;DHT22;10181;48.072;9.884;2022-11-18T04:41:13;7.80;99.90
20041;DHT22;10181;48.072;9.884;2022-11-18T04:43:40;7.70;99.90
20041;DHT22;10181;48.072;9.884;2022-11-18T04:46:05;7.70;99.90
20041;DHT22;10181;48.072;9.884;2022-11-18T04:48:31;7.70;99.90
20041;DHT22;10181;48.072;9.884;2022-11-18T04:50:57;7.70;99.90
20041;DHT22;10181;48.072;9.884;2022-11-18T04:53:22;7.60;99.90
20041;DHT22;10181;48.072;9.884;2022-11-18T04:55:48;7.60;99.90
20041;DHT22;10181;48.072;9.884;2022-11-18T04:58:13;7.60;99.90
20041;DHT22;10181;48.072;9.884;2022-11-18T05:00:39;7.60;99.90
20041;DHT22;10181;48.072;9.884;2022-11-18T05:03:05;7.50;99.90
20041;DHT22;10181;48.072;9.884;2022-11-18T05:05:32;7.50;99.90
20041;DHT22;10181;48.072;9.884;2022-11-18T05:07:58;7.30;99.90
20041;DHT22;10181;48.072;9.884;2022-11-18T05:10:23;7.20;99.90
20041;DHT22;10181;48.072;9.884;2022-11-18T05:12:49;7.10;99.90
20041;DHT22;10181;48.072;9.884;2022-11-18T05:15:16;7.10;99.90
20041;DHT22;10181;48.072;9.884;2022-11-18T05:17:42;7.10;99.90
20041;DHT22;10181;48.072;9.884;2022-11-18T05:20:09;7.10;99.90
20041;DHT22;10181;48.072;9.884;2022-11-18T05:22:35;7.10;99.90
20041;DHT22;10181;48.072;9.884;2022-11-18T05:25:00;7.20;99.90
20041;DHT22;10181;48.072;9.884;2022-11-18T05:27:26;7.20;99.90
20041;DHT22;10181;48.072;9.884;2022-11-18T05:29:52;7.20;99.90
20041;DHT22;10181;48.072;9.884;2022-11-18T05:32:18;7.30;99.90
20041;DHT22;10181;48.072;9.884;2022-11-18T05:34:43;7.30;99.90
20041;DHT22;10181;48.072;9.884;2022-11-18T05:37:09;7.30;99.90
20041;DHT22;10181;48.072;9.884;2022-11-18T05:39:35;7.30;99.90
20041;DHT22;10181;48.072;9.884;2022-11-18T05:42:01;7.30;99.90
20041;DHT22;10181;48.072;9.884;2022-11-18T05:44:46;7.40;99.90
20041;DHT22;10181;48.072;9.884;2022-11-18T05:47:12;7.40;99.90
20041;DHT22;10181;48.072;9.884;2022-11-18T05:49:37;7.40;99.90
20041;DHT22;10181;48.072;9.884;2022-11-18T05:52:03;7.40;99.90
20041;DHT22;10181;48.072;9.884;2022-11-18T05:54:29;7.40;99.90
20041;DHT22;10181;48.072;9.884;2022-11-18T05:56:54;7.40;99.90
20041;DHT22;10181;48.072;9.884;2022-11-18T05:59:20;7.50;99.90
20041;DHT22;10181;48.072;9.884;2022-11-18T06:02:03;7.40;99.90
20041;DHT22;10181;48.072;9.884;2022-11-18T06:04:40;7.40;99.90
20041;DHT22;10181;48.072;9.884;2022-11-18T06:07:15;7.50;99.90
20041;DHT22;10181;48.072;9.884;2022-11-18T06:09:45;7.40;99.90
20041;DHT22;10181;48.072;9.884;2022-11-18T06:12:15;7.40;99.90
20041;DHT22;10181;48.072;9.884;2022-11-18T06:14:45;7.40;99.90
20041;DHT22;10181;48.072;9.884;2022-11-18T06:17:16;7.50;99.90
20041;DHT22;10181;48.072;9.884;2022-11-18T06:19:44;7.50;99.90
20041;DHT22;10181;48.072;9.884;2022-11-18T06:22:09;7.50;99.90
20041;DHT22;10181;48.072;9.884;2022-11-18T06:24:36;7.50;99.90
20041;DHT22;10181;48.072;9.884;2022-11-18T06:27:02;7.50;99.90
20041;DHT22;10181;48.072;9.884;2022-11-18T06:29:29;7.50;99.90
20041;DHT22;10181;48.072;9.884;2022-11-18T06:31:55;7.50;99.90
20041;DHT22;10181;48.072;9.884;2022-11-18T06:34:21;7.50;99.90
20041;DHT22;10181;48.072;9.884;2022-11-18T06:36:47;7.50;99.90
20041;DHT22;10181;48.072;9.884;2022-11-18T06:39:12;7.50;99.90
20041;DHT22;10181;48.072;9.884;2022-11-18T06:41:38;7.50;99.90
20041;DHT22;10181;48.072;9.884;2022-11-18T06:44:04;7.60;99.90
20041;DHT22;10181;48.072;9.884;2022-11-18T06:46:29;7.60;99.90
20041;DHT22;10181;48.072;9.884;2022-11-18T06:49:14;7.50;99.90
20041;DHT22;10181;48.072;9.884;2022-11-18T06:51:39;7.50;99.90
20041;DHT22;10181;48.072;9.884;2022-11-18T06:54:05;7.50;99.90
20041;DHT22;10181;48.072;9.884;2022-11-18T06:56:31;7.60;99.90
20041;DHT22;10181;48.072;9.884;2022-11-18T06:58:57;7.60;99.90
20041;DHT22;10181;48.072;9.884;2022-11-18T07:01:25;7.60;99.90
20041;DHT22;10181;48.072;9.884;2022-11-18T07:03:52;7.60;99.90
20041;DHT22;10181;48.072;9.884;2022-11-18T07:06:22;7.60;99.90
20041;DHT22;10181;48.072;9.884;2022-11-18T07:08:49;7.60;99.90
20041;DHT22;10181;48.072;9.884;2022-11-18T07:11:18;7.60;99.90
20041;DHT22;10181;48.072;9.884;2022-11-18T07:13:45;7.60;99.90
20041;DHT22;10181;48.072;9.884;2022-11-18T07:16:13;7.60;99.90
20041;DHT22;10181;48.072;9.884;2022-11-18T07:18:39;7.60;99.90
20041;DHT22;10181;48.072;9.884;2022-11-18T07:21:13;7.60;99.90
20041;DHT22;10181;48.072;9.884;2022-11-18T07:23:39;7.60;99.90
20041;DHT22;10181;48.072;9.884;2022-11-18T07:26:05;7.60;99.90
20041;DHT22;10181;48.072;9.884;2022-11-18T07:28:32;7.60;99.90
20041;DHT22;10181;48.072;9.884;2022-11-18T07:33:34;7.60;99.90
20041;DHT22;10181;48.072;9.884;2022-11-18T07:36:11;7.60;99.90
20041;DHT22;10181;48.072;9.884;2022-11-18T07:38:38;7.70;99.90
20041;DHT22;10181;48.072;9.884;2022-11-18T07:41:05;7.70;99.90
20041;DHT22;10181;48.072;9.884;2022-11-18T07:43:33;7.70;99.90
20041;DHT22;10181;48.072;9.884;2022-11-18T07:46:09;7.60;99.90
20041;DHT22;10181;48.072;9.884;2022-11-18T07:48:35;7.60;99.90
20041;DHT22;10181;48.072;9.884;2022-11-18T07:51:00;7.60;99.90
20041;DHT22;10181;48.072;9.884;2022-11-18T07:53:29;7.60;99.90
20041;DHT22;10181;48.072;9.884;2022-11-18T07:55:55;7.60;99.90
20041;DHT22;10181;48.072;9.884;2022-11-18T07:58:21;7.60;99.90
20041;DHT22;10181;48.072;9.884;2022-11-18T08:00:47;7.60;99.90
20041;DHT22;10181;48.072;9.884;2022-11-18T08:03:12;7.60;99.90
20041;DHT22;10181;48.072;9.884;2022-11-18T08:05:38;7.60;99.90
20041;DHT22;10181;48.072;9.884;2022-11-18T08:08:04;7.60;99.90
20041;DHT22;10181;48.072;9.884;2022-11-18T08:10:29;7.60;99.90
20041;DHT22;10181;48.072;9.884;2022-11-18T08:12:55;7.70;99.90
20041;DHT22;10181;48.072;9.884;2022-11-18T08:15:22;7.60;99.90
20041;DHT22;10181;48.072;9.884;2022-11-18T08:17:47;7.60;99.90
20041;DHT22;10181;48.072;9.884;2022-11-18T08:20:13;7.60;99.90
20041;DHT22;10181;48.072;9.884;2022-11-18T08:22:39;7.60;99.90
20041;DHT22;10181;48.072;9.884;2022-11-18T08:25:05;7.60;99.90
20041;DHT22;10181;48.072;9.884;2022-11-18T08:27:31;7.60;99.90
20041;DHT22;10181;48.072;9.884;2022-11-18T08:29:57;7.60;99.90
20041;DHT22;10181;48.072;9.884;2022-11-18T08:32:22;7.60;99.90
20041;DHT22;10181;48.072;9.884;2022-11-18T08:34:49;7.60;99.90
20041;DHT22;10181;48.072;9.884;2022-11-18T08:37:16;7.60;99.90
20041;DHT22;10181;48.072;9.884;2022-11-18T08:39:42;7.70;99.90
20041;DHT22;10181;48.072;9.884;2022-11-18T08:42:08;7.70;99.90
20041;DHT22;10181;48.072;9.884;2022-11-18T08:44:34;7.60;99.90
20041;DHT22;10181;48.072;9.884;2022-11-18T08:47:00;7.70;99.90
20041;DHT22;10181;48.072;9.884;2022-11-18T08:49:26;7.60;99.90
20041;DHT22;10181;48.072;9.884;2022-11-18T08:51:52;7.60;99.90
20041;DHT22;10181;48.072;9.884;2022-11-18T08:54:17;7.60;99.90
20041;DHT22;10181;48.072;9.884;2022-11-18T08:56:43;7.60;99.90
20041;DHT22;10181;48.072;9.884;2022-11-18T08:59:08;7.60;99.90
20041;DHT22;10181;48.072;9.884;2022-11-18T09:01:36;7.60;99.90
20041;DHT22;10181;48.072;9.884;2022-11-18T09:04:02;7.50;99.90
20041;DHT22;10181;48.072;9.884;2022-11-18T09:06:28;7.60;99.90
20041;DHT22;10181;48.072;9.884;2022-11-18T09:08:54;7.60;99.90
20041;DHT22;10181;48.072;9.884;2022-11-18T09:11:22;7.50;99.90
20041;DHT22;10181;48.072;9.884;2022-11-18T09:13:53;7.40;99.90
20041;DHT22;10181;48.072;9.884;2022-11-18T09:16:21;7.40;99.90
20041;DHT22;10181;48.072;9.884;2022-11-18T09:18:48;7.40;99.90
20041;DHT22;10181;48.072;9.884;2022-11-18T09:21:14;7.40;99.90
20041;DHT22;10181;48.072;9.884;2022-11-18T09:23:40;7.30;99.90
20041;DHT22;10181;48.072;9.884;2022-11-18T09:26:08;7.40;99.90
20041;DHT22;10181;48.072;9.884;2022-11-18T09:28:34;7.30;99.90
20041;DHT22;10181;48.072;9.884;2022-11-18T09:33:30;7.30;99.90
20041;DHT22;10181;48.072;9.884;2022-11-18T09:35:55;7.30;99.90
20041;DHT22;10181;48.072;9.884;2022-11-18T09:38:21;7.30;99.90
20041;DHT22;10181;48.072;9.884;2022-11-18T09:48:41;7.50;99.90
20041;DHT22;10181;48.072;9.884;2022-11-18T09:51:26;7.40;99.90
20041;DHT22;10181;48.072;9.884;2022-11-18T09:53:53;7.50;99.90
20041;DHT22;10181;48.072;9.884;2022-11-18T09:56:18;7.60;99.90
20041;DHT22;10181;48.072;9.884;2022-11-18T09:58:45;7.60;99.90
20041;DHT22;10181;48.072;9.884;2022-11-18T10:01:17;7.60;99.90
20041;DHT22;10181;48.072;9.884;2022-11-18T10:03:44;7.70;99.90
20041;DHT22;10181;48.072;9.884;2022-11-18T10:06:23;7.70;99.90
20041;DHT22;10181;48.072;9.884;2022-11-18T10:09:00;7.70;99.90
20041;DHT22;10181;48.072;9.884;2022-11-18T10:20:27;7.80;99.90
20041;DHT22;10181;48.072;9.884;2022-11-18T10:25:34;7.70;99.90
20041;DHT22;10181;48.072;9.884;2022-11-18T10:28:21;7.60;99.90
20041;DHT22;10181;48.072;9.884;2022-11-18T10:30:48;7.60;99.90
20041;DHT22;10181;48.072;9.884;2022-11-18T10:33:27;7.60;99.90
20041;DHT22;10181;48.072;9.884;2022-11-18T10:38:47;7.60;99.90
20041;DHT22;10181;48.072;9.884;2022-11-18T10:41:16;7.60;99.90
20041;DHT22;10181;48.072;9.884;2022-11-18T10:51:32;7.60;99.90
20041;DHT22;10181;48.072;9.884;2022-11-18T10:54:24;7.70;99.90
20041;DHT22;10181;48.072;9.884;2022-11-18T10:56:56;7.70;99.90
20041;DHT22;10181;48.072;9.884;2022-11-18T10:59:30;7.60;99.90
20041;DHT22;10181;48.072;9.884;2022-11-18T11:04:28;7.60;99.90
20041;DHT22;10181;48.072;9.884;2022-11-18T11:06:56;7.60;99.90
20041;DHT22;10181;48.072;9.884;2022-11-18T11:09:27;7.80;99.90
20041;DHT22;10181;48.072;9.884;2022-11-18T11:12:12;7.90;99.90
20041;DHT22;10181;48.072;9.884;2022-11-18T11:14:56;7.90;99.90
20041;DHT22;10181;48.072;9.884;2022-11-18T11:17:35;7.90;99.90
20041;DHT22;10181;48.072;9.884;2022-11-18T11:22:41;7.90;99.90
20041;DHT22;10181;48.072;9.884;2022-11-18T11:25:28;7.90;99.90
20041;DHT22;10181;48.072;9.884;2022-11-18T11:28:07;8.00;99.90
20041;DHT22;10181;48.072;9.884;2022-11-18T11:37:03;8.10;99.90
20041;DHT22;10181;48.072;9.884;2022-11-18T11:42:37;8.20;99.90
20041;DHT22;10181;48.072;9.884;2022-11-18T11:50:49;8.20;99.90
20041;DHT22;10181;48.072;9.884;2022-11-18T12:04:49;8.30;99.90
20041;DHT22;10181;48.072;9.884;2022-11-18T12:07:25;8.20;99.90
20041;DHT22;10181;48.072;9.884;2022-11-18T12:15:43;8.10;99.90
20041;DHT22;10181;48.072;9.884;2022-11-18T12:18:34;8.10;99.90
20041;DHT22;10181;48.072;9.884;2022-11-18T12:21:02;8.10;99.90
20041;DHT22;10181;48.072;9.884;2022-11-18T12:23:29;8.10;99.90
20041;DHT22;10181;48.072;9.884;2022-11-18T12:26:02;8.00;99.90
20041;DHT22;10181;48.072;9.884;2022-11-18T12:28:40;7.90;99.90
20041;DHT22;10181;48.072;9.884;2022-11-18T12:34:01;7.80;99.90
20041;DHT22;10181;48.072;9.884;2022-11-18T12:36:38;7.60;99.90
20041;DHT22;10181;48.072;9.884;2022-11-18T12:42:03;7.30;99.90
20041;DHT22;10181;48.072;9.884;2022-11-18T12:44:50;7.30;99.90
20041;DHT22;10181;48.072;9.884;2022-11-18T12:50:14;7.30;99.90
20041;DHT22;10181;48.072;9.884;2022-11-18T12:55:23;7.40;99.90
20041;DHT22;10181;48.072;9.884;2022-11-18T12:57:49;7.40;99.90
20041;DHT22;10181;48.072;9.884;2022-11-18T13:00:28;7.50;99.90
20041;DHT22;10181;48.072;9.884;2022-11-18T13:02:59;7.50;99.90
20041;DHT22;10181;48.072;9.884;2022-11-18T13:05:34;7.60;99.90
20041;DHT22;10181;48.072;9.884;2022-11-18T13:08:04;7.60;99.90
20041;DHT22;10181;48.072;9.884;2022-11-18T13:13:31;7.80;99.90
20041;DHT22;10181;48.072;9.884;2022-11-18T13:16:02;7.80;99.90
20041;DHT22;10181;48.072;9.884;2022-11-18T13:18:52;7.90;99.90
20041;DHT22;10181;48.072;9.884;2022-11-18T13:21:26;7.90;99.90
20041;DHT22;10181;48.072;9.884;2022-11-18T13:24:11;7.80;99.90
20041;DHT22;10181;48.072;9.884;2022-11-18T13:26:40;7.80;99.90
20041;DHT22;10181;48.072;9.884;2022-11-18T13:30:28;7.90;99.90
20041;DHT22;10181;48.072;9.884;2022-11-18T13:32:27;7.90;99.90
20041;DHT22;10181;48.072;9.884;2022-11-18T13:34:58;8.10;99.90
20041;DHT22;10181;48.072;9.884;2022-11-18T13:37:31;8.20;99.90
20041;DHT22;10181;48.072;9.884;2022-11-18T13:39:58;8.30;99.90
20041;DHT22;10181;48.072;9.884;2022-11-18T13:42:31;8.40;99.90
20041;DHT22;10181;48.072;9.884;2022-11-18T13:45:00;8.40;99.90
20041;DHT22;10181;48.072;9.884;2022-11-18T13:47:44;8.40;99.90
20041;DHT22;10181;48.072;9.884;2022-11-18T13:50:24;8.40;99.90
20041;DHT22;10181;48.072;9.884;2022-11-18T13:55:38;8.30;99.90
20041;DHT22;10181;48.072;9.884;2022-11-18T14:00:43;8.10;99.90
20041;DHT22;10181;48.072;9.884;2022-11-18T14:03:25;8.10;99.90
20041;DHT22;10181;48.072;9.884;2022-11-18T14:05:53;8.10;99.90
20041;DHT22;10181;48.072;9.884;2022-11-18T14:08:28;8.20;99.90
20041;DHT22;10181;48.072;9.884;2022-11-18T14:10:54;8.30;99.90
20041;DHT22;10181;48.072;9.884;2022-11-18T14:13:30;8.20;99.90
20041;DHT22;10181;48.072;9.884;2022-11-18T14:15:58;8.20;99.90
20041;DHT22;10181;48.072;9.884;2022-11-18T14:18:34;8.10;99.90
20041;DHT22;10181;48.072;9.884;2022-11-18T14:21:02;8.10;99.90
20041;DHT22;10181;48.072;9.884;2022-11-18T14:23:31;8.00;99.90
20041;DHT22;10181;48.072;9.884;2022-11-18T14:25:58;7.90;99.90
20041;DHT22;10181;48.072;9.884;2022-11-18T14:28:28;7.80;99.90
20041;DHT22;10181;48.072;9.884;2022-11-18T14:31:03;7.80;99.90
20041;DHT22;10181;48.072;9.884;2022-11-18T14:33:32;7.90;99.90
20041;DHT22;10181;48.072;9.884;2022-11-18T14:38:45;7.80;99.90
20041;DHT22;10181;48.072;9.884;2022-11-18T14:41:13;7.70;99.90
20041;DHT22;10181;48.072;9.884;2022-11-18T14:43:40;7.50;99.90
20041;DHT22;10181;48.072;9.884;2022-11-18T14:46:16;7.50;99.90
20041;DHT22;10181;48.072;9.884;2022-11-18T14:48:43;7.50;99.90
20041;DHT22;10181;48.072;9.884;2022-11-18T14:51:14;7.40;99.90
20041;DHT22;10181;48.072;9.884;2022-11-18T14:53:41;7.30;99.90
20041;DHT22;10181;48.072;9.884;2022-11-18T14:56:23;7.30;99.90
20041;DHT22;10181;48.072;9.884;2022-11-18T14:58:49;7.40;99.90
20041;DHT22;10181;48.072;9.884;2022-11-18T15:01:15;7.40;99.90
20041;DHT22;10181;48.072;9.884;2022-11-18T15:03:41;7.30;99.90
20041;DHT22;10181;48.072;9.884;2022-11-18T15:06:14;7.30;99.90
20041;DHT22;10181;48.072;9.884;2022-11-18T15:08:40;7.20;99.90
20041;DHT22;10181;48.072;9.884;2022-11-18T15:11:07;7.30;99.90
20041;DHT22;10181;48.072;9.884;2022-11-18T15:13:32;7.20;99.90
20041;DHT22;10181;48.072;9.884;2022-11-18T15:15:58;7.20;99.90
20041;DHT22;10181;48.072;9.884;2022-11-18T15:18:24;7.20;99.90
20041;DHT22;10181;48.072;9.884;2022-11-18T15:20:50;7.20;99.90
20041;DHT22;10181;48.072;9.884;2022-11-18T15:23:17;7.00;99.90
20041;DHT22;10181;48.072;9.884;2022-11-18T15:25:43;7.00;99.90
20041;DHT22;10181;48.072;9.884;2022-11-18T15:28:10;7.00;99.90
20041;DHT22;10181;48.072;9.884;2022-11-18T15:30:35;7.00;99.90
20041;DHT22;10181;48.072;9.884;2022-11-18T15:33:01;6.90;99.90
20041;DHT22;10181;48.072;9.884;2022-11-18T15:35:27;6.90;99.90
20041;DHT22;10181;48.072;9.884;2022-11-18T15:37:52;6.80;99.90
20041;DHT22;10181;48.072;9.884;2022-11-18T15:40:18;6.80;99.90
20041;DHT22;10181;48.072;9.884;2022-11-18T15:42:44;6.70;99.90
20041;DHT22;10181;48.072;9.884;2022-11-18T15:45:09;6.70;99.90
20041;DHT22;10181;48.072;9.884;2022-11-18T15:47:35;6.70;99.90
20041;DHT22;10181;48.072;9.884;2022-11-18T15:50:01;6.70;99.90
20041;DHT22;10181;48.072;9.884;2022-11-18T15:52:26;6.70;99.90
20041;DHT22;10181;48.072;9.884;2022-11-18T15:54:53;6.70;99.90
20041;DHT22;10181;48.072;9.884;2022-11-18T15:57:19;6.70;99.90
20041;DHT22;10181;48.072;9.884;2022-11-18T15:59:45;6.70;99.90
20041;DHT22;10181;48.072;9.884;2022-11-18T16:02:11;6.70;99.90
20041;DHT22;10181;48.072;9.884;2022-11-18T16:04:36;6.70;99.90
20041;DHT22;10181;48.072;9.884;2022-11-18T16:07:02;6.70;99.90
20041;DHT22;10181;48.072;9.884;2022-11-18T16:09:29;6.70;99.90
20041;DHT22;10181;48.072;9.884;2022-11-18T16:12:15;6.60;99.90
20041;DHT22;10181;48.072;9.884;2022-11-18T16:14:58;6.60;99.90
20041;DHT22;10181;48.072;9.884;2022-11-18T16:17:43;6.60;99.90
20041;DHT22;10181;48.072;9.884;2022-11-18T16:20:09;6.60;99.90
20041;DHT22;10181;48.072;9.884;2022-11-18T16:22:34;6.60;99.90
20041;DHT22;10181;48.072;9.884;2022-11-18T16:25:00;6.60;99.90
20041;DHT22;10181;48.072;9.884;2022-11-18T16:27:26;6.70;99.90
20041;DHT22;10181;48.072;9.884;2022-11-18T16:29:51;6.60;99.90
20041;DHT22;10181;48.072;9.884;2022-11-18T16:32:17;6.70;99.90
20041;DHT22;10181;48.072;9.884;2022-11-18T16:34:42;6.70;99.90
20041;DHT22;10181;48.072;9.884;2022-11-18T16:37:08;6.70;99.90
20041;DHT22;10181;48.072;9.884;2022-11-18T16:39:33;6.70;99.90
20041;DHT22;10181;48.072;9.884;2022-11-18T16:42:00;6.70;99.90
20041;DHT22;10181;48.072;9.884;2022-11-18T16:44:26;6.70;99.90
20041;DHT22;10181;48.072;9.884;2022-11-18T16:46:56;6.70;99.90
20041;DHT22;10181;48.072;9.884;2022-11-18T16:49:24;6.70;99.90
20041;DHT22;10181;48.072;9.884;2022-11-18T16:51:52;6.70;99.90
20041;DHT22;10181;48.072;9.884;2022-11-18T16:54:27;6.70;99.90
20041;DHT22;10181;48.072;9.884;2022-11-18T16:56:55;6.70;99.90
20041;DHT22;10181;48.072;9.884;2022-11-18T16:59:26;6.70;99.90
20041;DHT22;10181;48.072;9.884;2022-11-18T17:01:53;6.70;99.90
20041;DHT22;10181;48.072;9.884;2022-11-18T17:04:20;6.60;99.90
20041;DHT22;10181;48.072;9.884;2022-11-18T17:06:46;6.50;99.90
20041;DHT22;10181;48.072;9.884;2022-11-18T17:09:15;6.50;99.90
20041;DHT22;10181;48.072;9.884;2022-11-18T17:11:41;6.40;99.90
20041;DHT22;10181;48.072;9.884;2022-11-18T17:14:07;6.40;99.90
20041;DHT22;10181;48.072;9.884;2022-11-18T17:16:32;6.40;99.90
20041;DHT22;10181;48.072;9.884;2022-11-18T17:18:59;6.40;99.90
20041;DHT22;10181;48.072;9.884;2022-11-18T17:21:26;6.30;99.90
20041;DHT22;10181;48.072;9.884;2022-11-18T17:23:53;6.30;99.90
20041;DHT22;10181;48.072;9.884;2022-11-18T17:26:22;6.30;99.90
20041;DHT22;10181;48.072;9.884;2022-11-18T17:28:48;6.30;99.90
20041;DHT22;10181;48.072;9.884;2022-11-18T17:31:15;6.30;99.90
20041;DHT22;10181;48.072;9.884;2022-11-18T17:33:42;6.30;99.90
20041;DHT22;10181;48.072;9.884;2022-11-18T17:36:10;6.40;99.90
20041;DHT22;10181;48.072;9.884;2022-11-18T17:38:38;6.40;99.90
20041;DHT22;10181;48.072;9.884;2022-11-18T17:41:05;6.40;99.90
20041;DHT22;10181;48.072;9.884;2022-11-18T17:43:33;6.40;99.90
20041;DHT22;10181;48.072;9.884;2022-11-18T17:45:59;6.40;99.90
20041;DHT22;10181;48.072;9.884;2022-11-18T17:48:27;6.30;99.90
20041;DHT22;10181;48.072;9.884;2022-11-18T17:50:53;6.30;99.90
20041;DHT22;10181;48.072;9.884;2022-11-18T17:53:19;6.20;99.90
20041;DHT22;10181;48.072;9.884;2022-11-18T17:55:46;6.10;99.90